sensor_id;sensor_type;location;lat;lon;timestamp;temperature;humidity
65072;DHT22;51663;52.310;17.016;2023-05-02T00:00:33;31.00;24.80
65072;DHT22;51663;52.310;17.016;2023-05-02T00:03:51;31.10;24.70
65072;DHT22;51663;52.310;17.016;2023-05-02T00:06:56;31.10;24.80
65072;DHT22;51663;52.310;17.016;2023-05-02T00:09:58;31.10;24.40
65072;DHT22;51663;52.310;17.016;2023-05-02T00:13:04;31.20;24.40
65072;DHT22;51663;52.310;17.016;2023-05-02T00:16:06;31.20;24.30
65072;DHT22;51663;52.310;17.016;2023-05-02T00:19:08;31.10;24.40
65072;DHT22;51663;52.310;17.016;2023-05-02T00:22:13;31.00;24.40
65072;DHT22;51663;52.310;17.016;2023-05-02T00:25:15;31.00;24.50
65072;DHT22;51663;52.310;17.016;2023-05-02T00:28:29;31.10;24.40
65072;DHT22;51663;52.310;17.016;2023-05-02T00:31:36;31.00;24.50
65072;DHT22;51663;52.310;17.016;2023-05-02T00:34:38;31.00;24.50
65072;DHT22;51663;52.310;17.016;2023-05-02T00:37:40;31.10;24.40
65072;DHT22;51663;52.310;17.016;2023-05-02T00:40:46;31.20;24.50
65072;DHT22;51663;52.310;17.016;2023-05-02T00:43:49;31.40;24.40
65072;DHT22;51663;52.310;17.016;2023-05-02T00:46:51;31.50;24.40
65072;DHT22;51663;52.310;17.016;2023-05-02T00:49:54;31.50;24.40
65072;DHT22;51663;52.310;17.016;2023-05-02T00:52:56;31.60;24.50
65072;DHT22;51663;52.310;17.016;2023-05-02T00:56:01;31.70;24.40
65072;DHT22;51663;52.310;17.016;2023-05-02T00:59:05;31.90;24.50
65072;DHT22;51663;52.310;17.016;2023-05-02T01:02:33;31.90;24.50
65072;DHT22;51663;52.310;17.016;2023-05-02T01:05:47;31.90;24.60
65072;DHT22;51663;52.310;17.016;2023-05-02T01:13:16;31.90;24.70
65072;DHT22;51663;52.310;17.016;2023-05-02T01:16:19;32.00;24.60
65072;DHT22;51663;52.310;17.016;2023-05-02T01:27:06;31.90;24.80
65072;DHT22;51663;52.310;17.016;2023-05-02T01:30:29;32.00;24.90
65072;DHT22;51663;52.310;17.016;2023-05-02T01:33:34;32.00;24.80
65072;DHT22;51663;52.310;17.016;2023-05-02T01:36:45;32.00;25.00
65072;DHT22;51663;52.310;17.016;2023-05-02T01:39:48;32.00;24.90
65072;DHT22;51663;52.310;17.016;2023-05-02T01:42:52;32.00;24.90
65072;DHT22;51663;52.310;17.016;2023-05-02T01:45:56;32.00;25.00
65072;DHT22;51663;52.310;17.016;2023-05-02T01:49:02;32.10;25.20
65072;DHT22;51663;52.310;17.016;2023-05-02T01:52:07;32.10;25.30
65072;DHT22;51663;52.310;17.016;2023-05-02T01:55:14;32.10;25.20
65072;DHT22;51663;52.310;17.016;2023-05-02T01:58:31;32.10;25.30
65072;DHT22;51663;52.310;17.016;2023-05-02T02:01:55;32.10;25.20
65072;DHT22;51663;52.310;17.016;2023-05-02T02:05:16;32.20;25.20
65072;DHT22;51663;52.310;17.016;2023-05-02T02:08:49;32.20;25.30
65072;DHT22;51663;52.310;17.016;2023-05-02T02:11:59;32.20;25.30
65072;DHT22;51663;52.310;17.016;2023-05-02T02:15:09;32.30;25.60
65072;DHT22;51663;52.310;17.016;2023-05-02T02:18:20;32.30;25.50
65072;DHT22;51663;52.310;17.016;2023-05-02T02:21:24;32.20;25.50
65072;DHT22;51663;52.310;17.016;2023-05-02T02:24:29;32.30;25.50
65072;DHT22;51663;52.310;17.016;2023-05-02T02:27:32;32.20;25.30
65072;DHT22;51663;52.310;17.016;2023-05-02T02:34:21;32.20;25.60
65072;DHT22;51663;52.310;17.016;2023-05-02T02:37:28;32.30;25.70
65072;DHT22;51663;52.310;17.016;2023-05-02T02:46:52;32.20;25.80
65072;DHT22;51663;52.310;17.016;2023-05-02T02:50:17;32.30;25.80
65072;DHT22;51663;52.310;17.016;2023-05-02T02:53:26;32.40;25.70
65072;DHT22;51663;52.310;17.016;2023-05-02T02:56:41;32.50;25.70
65072;DHT22;51663;52.310;17.016;2023-05-02T03:00:15;32.50;25.70
65072;DHT22;51663;52.310;17.016;2023-05-02T03:03:21;32.50;25.70
65072;DHT22;51663;52.310;17.016;2023-05-02T03:06:24;32.60;25.70
65072;DHT22;51663;52.310;17.016;2023-05-02T03:09:42;32.60;25.90
65072;DHT22;51663;52.310;17.016;2023-05-02T03:12:45;32.60;25.80
65072;DHT22;51663;52.310;17.016;2023-05-02T03:18:54;32.60;25.90
65072;DHT22;51663;52.310;17.016;2023-05-02T03:22:00;32.60;26.00
65072;DHT22;51663;52.310;17.016;2023-05-02T03:25:30;32.60;25.90
65072;DHT22;51663;52.310;17.016;2023-05-02T03:29:00;32.60;26.30
65072;DHT22;51663;52.310;17.016;2023-05-02T03:32:02;32.60;26.30
65072;DHT22;51663;52.310;17.016;2023-05-02T03:35:05;32.60;26.30
65072;DHT22;51663;52.310;17.016;2023-05-02T03:38:07;32.60;26.30
65072;DHT22;51663;52.310;17.016;2023-05-02T03:41:10;32.60;26.60
65072;DHT22;51663;52.310;17.016;2023-05-02T03:44:12;32.60;26.70
65072;DHT22;51663;52.310;17.016;2023-05-02T03:47:14;32.60;27.20
65072;DHT22;51663;52.310;17.016;2023-05-02T03:50:29;32.60;27.60
65072;DHT22;51663;52.310;17.016;2023-05-02T03:53:39;32.60;27.90
65072;DHT22;51663;52.310;17.016;2023-05-02T03:56:41;32.30;28.10
65072;DHT22;51663;52.310;17.016;2023-05-02T03:59:45;32.30;28.40
65072;DHT22;51663;52.310;17.016;2023-05-02T04:02:48;32.30;28.20
65072;DHT22;51663;52.310;17.016;2023-05-02T04:05:50;32.40;28.70
65072;DHT22;51663;52.310;17.016;2023-05-02T04:08:52;32.30;28.20
65072;DHT22;51663;52.310;17.016;2023-05-02T04:11:54;32.10;28.60
65072;DHT22;51663;52.310;17.016;2023-05-02T04:14:57;32.10;28.70
65072;DHT22;51663;52.310;17.016;2023-05-02T04:17:59;32.20;28.60
65072;DHT22;51663;52.310;17.016;2023-05-02T04:21:01;32.20;28.70
65072;DHT22;51663;52.310;17.016;2023-05-02T04:24:04;32.30;29.00
65072;DHT22;51663;52.310;17.016;2023-05-02T04:27:09;31.90;29.40
65072;DHT22;51663;52.310;17.016;2023-05-02T04:30:15;32.10;29.30
65072;DHT22;51663;52.310;17.016;2023-05-02T04:33:18;32.20;29.10
65072;DHT22;51663;52.310;17.016;2023-05-02T04:36:20;32.10;29.20
65072;DHT22;51663;52.310;17.016;2023-05-02T04:39:23;32.30;29.30
65072;DHT22;51663;52.310;17.016;2023-05-02T04:42:25;32.40;29.30
65072;DHT22;51663;52.310;17.016;2023-05-02T04:45:27;32.50;29.10
65072;DHT22;51663;52.310;17.016;2023-05-02T04:48:29;32.60;29.20
65072;DHT22;51663;52.310;17.016;2023-05-02T04:51:31;32.60;29.00
65072;DHT22;51663;52.310;17.016;2023-05-02T04:54:42;32.80;29.00
65072;DHT22;51663;52.310;17.016;2023-05-02T04:57:44;32.80;28.80
65072;DHT22;51663;52.310;17.016;2023-05-02T05:00:46;32.90;28.90
65072;DHT22;51663;52.310;17.016;2023-05-02T05:03:51;32.90;28.90
65072;DHT22;51663;52.310;17.016;2023-05-02T05:07:00;32.90;28.90
65072;DHT22;51663;52.310;17.016;2023-05-02T05:10:02;32.80;28.80
65072;DHT22;51663;52.310;17.016;2023-05-02T05:13:05;32.80;28.50
65072;DHT22;51663;52.310;17.016;2023-05-02T05:16:07;32.80;28.50
65072;DHT22;51663;52.310;17.016;2023-05-02T05:19:13;32.80;28.60
65072;DHT22;51663;52.310;17.016;2023-05-02T05:22:15;32.90;28.50
65072;DHT22;51663;52.310;17.016;2023-05-02T05:25:19;33.00;28.80
65072;DHT22;51663;52.310;17.016;2023-05-02T05:28:21;33.00;28.60
65072;DHT22;51663;52.310;17.016;2023-05-02T05:31:23;33.00;28.60
65072;DHT22;51663;52.310;17.016;2023-05-02T05:34:26;33.10;28.70
65072;DHT22;51663;52.310;17.016;2023-05-02T05:37:28;33.10;28.40
65072;DHT22;51663;52.310;17.016;2023-05-02T05:40:30;33.20;28.70
65072;DHT22;51663;52.310;17.016;2023-05-02T05:43:33;33.30;28.70
65072;DHT22;51663;52.310;17.016;2023-05-02T05:46:37;33.20;29.20
65072;DHT22;51663;52.310;17.016;2023-05-02T05:49:42;33.20;28.90
65072;DHT22;51663;52.310;17.016;2023-05-02T05:52:44;33.20;29.00
65072;DHT22;51663;52.310;17.016;2023-05-02T05:55:46;33.30;28.70
65072;DHT22;51663;52.310;17.016;2023-05-02T05:58:50;33.40;28.60
65072;DHT22;51663;52.310;17.016;2023-05-02T06:01:52;33.50;28.80
65072;DHT22;51663;52.310;17.016;2023-05-02T06:04:54;33.60;28.60
65072;DHT22;51663;52.310;17.016;2023-05-02T06:07:59;33.60;28.90
65072;DHT22;51663;52.310;17.016;2023-05-02T06:11:10;33.80;29.20
65072;DHT22;51663;52.310;17.016;2023-05-02T06:14:13;33.80;29.20
65072;DHT22;51663;52.310;17.016;2023-05-02T06:17:15;33.90;29.00
65072;DHT22;51663;52.310;17.016;2023-05-02T06:20:17;34.10;29.10
65072;DHT22;51663;52.310;17.016;2023-05-02T06:23:19;34.30;28.70
65072;DHT22;51663;52.310;17.016;2023-05-02T06:26:50;34.30;28.80
65072;DHT22;51663;52.310;17.016;2023-05-02T06:30:04;34.60;28.20
65072;DHT22;51663;52.310;17.016;2023-05-02T06:33:06;34.90;27.80
65072;DHT22;51663;52.310;17.016;2023-05-02T06:36:09;35.40;27.70
65072;DHT22;51663;52.310;17.016;2023-05-02T06:39:20;36.30;27.90
65072;DHT22;51663;52.310;17.016;2023-05-02T06:42:37;37.00;26.80
65072;DHT22;51663;52.310;17.016;2023-05-02T06:45:59;37.60;25.90
65072;DHT22;51663;52.310;17.016;2023-05-02T06:49:02;38.00;25.80
65072;DHT22;51663;52.310;17.016;2023-05-02T06:52:04;38.30;25.20
65072;DHT22;51663;52.310;17.016;2023-05-02T06:55:24;38.60;24.70
65072;DHT22;51663;52.310;17.016;2023-05-02T06:58:35;38.80;25.00
65072;DHT22;51663;52.310;17.016;2023-05-02T07:02:05;39.10;24.90
65072;DHT22;51663;52.310;17.016;2023-05-02T07:05:08;39.80;24.40
65072;DHT22;51663;52.310;17.016;2023-05-02T07:08:10;40.10;23.70
65072;DHT22;51663;52.310;17.016;2023-05-02T07:11:15;40.20;23.30
65072;DHT22;51663;52.310;17.016;2023-05-02T07:14:20;40.10;24.00
65072;DHT22;51663;52.310;17.016;2023-05-02T07:17:24;40.30;23.40
65072;DHT22;51663;52.310;17.016;2023-05-02T07:20:28;40.50;23.50
65072;DHT22;51663;52.310;17.016;2023-05-02T07:23:33;40.60;23.70
65072;DHT22;51663;52.310;17.016;2023-05-02T07:26:36;40.80;23.40
65072;DHT22;51663;52.310;17.016;2023-05-02T07:29:57;40.90;23.40
65072;DHT22;51663;52.310;17.016;2023-05-02T07:33:28;41.10;22.60
65072;DHT22;51663;52.310;17.016;2023-05-02T07:36:53;41.10;22.90
65072;DHT22;51663;52.310;17.016;2023-05-02T07:40:14;41.10;22.40
65072;DHT22;51663;52.310;17.016;2023-05-02T07:43:30;41.00;22.70
65072;DHT22;51663;52.310;17.016;2023-05-02T07:46:43;40.70;22.50
65072;DHT22;51663;52.310;17.016;2023-05-02T07:50:21;40.40;23.00
65072;DHT22;51663;52.310;17.016;2023-05-02T07:53:34;40.40;22.80
65072;DHT22;51663;52.310;17.016;2023-05-02T07:56:58;40.30;22.70
65072;DHT22;51663;52.310;17.016;2023-05-02T08:00:08;40.00;23.20
65072;DHT22;51663;52.310;17.016;2023-05-02T08:03:23;40.10;23.20
65072;DHT22;51663;52.310;17.016;2023-05-02T08:06:34;40.00;23.20
65072;DHT22;51663;52.310;17.016;2023-05-02T08:09:43;39.90;22.90
65072;DHT22;51663;52.310;17.016;2023-05-02T08:13:12;39.80;23.20
65072;DHT22;51663;52.310;17.016;2023-05-02T08:16:14;39.90;23.10
65072;DHT22;51663;52.310;17.016;2023-05-02T08:19:40;39.60;22.80
65072;DHT22;51663;52.310;17.016;2023-05-02T08:23:03;39.50;23.30
65072;DHT22;51663;52.310;17.016;2023-05-02T08:26:05;39.40;23.20
65072;DHT22;51663;52.310;17.016;2023-05-02T08:29:13;39.40;23.40
65072;DHT22;51663;52.310;17.016;2023-05-02T08:32:28;39.50;22.80
65072;DHT22;51663;52.310;17.016;2023-05-02T08:35:38;39.10;22.90
65072;DHT22;51663;52.310;17.016;2023-05-02T08:39:06;38.80;23.30
65072;DHT22;51663;52.310;17.016;2023-05-02T08:42:12;39.00;23.30
65072;DHT22;51663;52.310;17.016;2023-05-02T08:45:23;39.00;23.20
65072;DHT22;51663;52.310;17.016;2023-05-02T08:48:26;38.90;22.80
65072;DHT22;51663;52.310;17.016;2023-05-02T08:51:29;38.90;22.90
65072;DHT22;51663;52.310;17.016;2023-05-02T08:54:46;38.80;22.60
65072;DHT22;51663;52.310;17.016;2023-05-02T08:57:56;38.70;21.60
65072;DHT22;51663;52.310;17.016;2023-05-02T09:01:29;38.70;21.90
65072;DHT22;51663;52.310;17.016;2023-05-02T09:05:01;38.50;22.00
65072;DHT22;51663;52.310;17.016;2023-05-02T09:08:24;38.50;21.90
65072;DHT22;51663;52.310;17.016;2023-05-02T09:11:28;38.50;22.30
65072;DHT22;51663;52.310;17.016;2023-05-02T09:14:30;38.60;22.50
65072;DHT22;51663;52.310;17.016;2023-05-02T09:17:59;38.60;22.40
65072;DHT22;51663;52.310;17.016;2023-05-02T09:21:59;38.50;22.40
65072;DHT22;51663;52.310;17.016;2023-05-02T09:25:34;38.70;22.70
65072;DHT22;51663;52.310;17.016;2023-05-02T09:29:15;38.80;22.90
65072;DHT22;51663;52.310;17.016;2023-05-02T09:32:47;38.80;22.80
65072;DHT22;51663;52.310;17.016;2023-05-02T09:36:17;39.00;22.10
65072;DHT22;51663;52.310;17.016;2023-05-02T09:40:04;39.00;22.30
65072;DHT22;51663;52.310;17.016;2023-05-02T09:44:08;38.90;22.00
65072;DHT22;51663;52.310;17.016;2023-05-02T09:47:23;38.90;22.50
65072;DHT22;51663;52.310;17.016;2023-05-02T09:50:51;38.80;22.60
65072;DHT22;51663;52.310;17.016;2023-05-02T09:53:53;38.50;21.70
65072;DHT22;51663;52.310;17.016;2023-05-02T09:57:19;38.50;22.20
65072;DHT22;51663;52.310;17.016;2023-05-02T10:00:49;38.10;22.30
65072;DHT22;51663;52.310;17.016;2023-05-02T10:04:15;38.20;21.60
65072;DHT22;51663;52.310;17.016;2023-05-02T10:14:49;37.90;22.30
65072;DHT22;51663;52.310;17.016;2023-05-02T10:22:01;37.90;22.20
65072;DHT22;51663;52.310;17.016;2023-05-02T10:25:21;37.90;22.20
65072;DHT22;51663;52.310;17.016;2023-05-02T10:28:26;37.30;23.20
65072;DHT22;51663;52.310;17.016;2023-05-02T10:31:33;37.80;22.10
65072;DHT22;51663;52.310;17.016;2023-05-02T10:35:01;37.90;22.20
65072;DHT22;51663;52.310;17.016;2023-05-02T10:38:48;38.00;20.90
65072;DHT22;51663;52.310;17.016;2023-05-02T10:42:23;38.20;21.60
65072;DHT22;51663;52.310;17.016;2023-05-02T10:53:37;38.50;21.00
65072;DHT22;51663;52.310;17.016;2023-05-02T10:57:02;38.50;21.50
65072;DHT22;51663;52.310;17.016;2023-05-02T11:00:32;38.60;21.20
65072;DHT22;51663;52.310;17.016;2023-05-02T11:03:57;38.60;20.70
65072;DHT22;51663;52.310;17.016;2023-05-02T11:07:31;38.70;20.80
65072;DHT22;51663;52.310;17.016;2023-05-02T11:10:34;38.60;20.90
65072;DHT22;51663;52.310;17.016;2023-05-02T11:13:49;38.70;20.90
65072;DHT22;51663;52.310;17.016;2023-05-02T11:21:28;38.40;20.70
65072;DHT22;51663;52.310;17.016;2023-05-02T11:24:39;38.40;21.20
65072;DHT22;51663;52.310;17.016;2023-05-02T11:32:04;38.60;21.10
65072;DHT22;51663;52.310;17.016;2023-05-02T11:35:59;38.70;21.30
65072;DHT22;51663;52.310;17.016;2023-05-02T11:39:19;38.80;21.30
65072;DHT22;51663;52.310;17.016;2023-05-02T11:42:33;38.90;20.80
65072;DHT22;51663;52.310;17.016;2023-05-02T11:45:39;38.80;21.10
65072;DHT22;51663;52.310;17.016;2023-05-02T11:48:49;38.90;20.80
65072;DHT22;51663;52.310;17.016;2023-05-02T11:51:55;38.90;20.50
65072;DHT22;51663;52.310;17.016;2023-05-02T11:54:59;39.00;20.50
65072;DHT22;51663;52.310;17.016;2023-05-02T11:58:15;39.10;20.40
65072;DHT22;51663;52.310;17.016;2023-05-02T12:01:20;39.00;20.20
65072;DHT22;51663;52.310;17.016;2023-05-02T12:04:22;39.00;20.30
65072;DHT22;51663;52.310;17.016;2023-05-02T12:07:43;39.00;19.70
65072;DHT22;51663;52.310;17.016;2023-05-02T12:10:49;39.10;20.60
65072;DHT22;51663;52.310;17.016;2023-05-02T12:13:54;39.10;19.60
65072;DHT22;51663;52.310;17.016;2023-05-02T12:17:11;39.10;20.00
65072;DHT22;51663;52.310;17.016;2023-05-02T12:20:22;39.20;20.30
65072;DHT22;51663;52.310;17.016;2023-05-02T12:23:24;39.20;19.70
65072;DHT22;51663;52.310;17.016;2023-05-02T12:26:29;39.20;20.10
65072;DHT22;51663;52.310;17.016;2023-05-02T12:33:58;39.20;20.50
65072;DHT22;51663;52.310;17.016;2023-05-02T12:37:07;39.50;20.70
65072;DHT22;51663;52.310;17.016;2023-05-02T12:40:20;39.50;19.70
65072;DHT22;51663;52.310;17.016;2023-05-02T12:43:47;39.50;20.30
65072;DHT22;51663;52.310;17.016;2023-05-02T12:46:57;39.60;19.90
65072;DHT22;51663;52.310;17.016;2023-05-02T12:53:54;39.30;20.70
65072;DHT22;51663;52.310;17.016;2023-05-02T12:57:45;39.50;20.40
65072;DHT22;51663;52.310;17.016;2023-05-02T13:01:34;39.30;20.40
65072;DHT22;51663;52.310;17.016;2023-05-02T13:04:38;39.20;21.00
65072;DHT22;51663;52.310;17.016;2023-05-02T13:08:01;39.30;21.00
65072;DHT22;51663;52.310;17.016;2023-05-02T13:11:21;38.70;21.20
65072;DHT22;51663;52.310;17.016;2023-05-02T13:14:31;37.80;21.70
65072;DHT22;51663;52.310;17.016;2023-05-02T13:17:51;36.80;22.70
65072;DHT22;51663;52.310;17.016;2023-05-02T13:20:53;36.60;23.30
65072;DHT22;51663;52.310;17.016;2023-05-02T13:24:07;37.00;23.30
65072;DHT22;51663;52.310;17.016;2023-05-02T13:27:57;36.70;23.10
65072;DHT22;51663;52.310;17.016;2023-05-02T13:31:10;36.30;23.80
65072;DHT22;51663;52.310;17.016;2023-05-02T13:34:18;36.00;24.10
65072;DHT22;51663;52.310;17.016;2023-05-02T13:37:20;35.90;24.40
65072;DHT22;51663;52.310;17.016;2023-05-02T13:40:31;35.70;24.40
65072;DHT22;51663;52.310;17.016;2023-05-02T13:43:33;35.40;24.40
65072;DHT22;51663;52.310;17.016;2023-05-02T13:46:41;35.00;25.60
65072;DHT22;51663;52.310;17.016;2023-05-02T13:49:50;34.90;25.00
65072;DHT22;51663;52.310;17.016;2023-05-02T13:52:59;35.20;24.80
65072;DHT22;51663;52.310;17.016;2023-05-02T13:56:09;34.90;24.90
65072;DHT22;51663;52.310;17.016;2023-05-02T13:59:28;35.30;24.90
65072;DHT22;51663;52.310;17.016;2023-05-02T14:02:36;35.80;24.00
65072;DHT22;51663;52.310;17.016;2023-05-02T14:05:47;35.50;24.20
65072;DHT22;51663;52.310;17.016;2023-05-02T14:08:59;35.80;24.30
65072;DHT22;51663;52.310;17.016;2023-05-02T14:12:01;35.50;24.40
65072;DHT22;51663;52.310;17.016;2023-05-02T14:15:04;34.30;25.30
65072;DHT22;51663;52.310;17.016;2023-05-02T14:18:11;34.00;25.70
65072;DHT22;51663;52.310;17.016;2023-05-02T14:21:14;33.10;26.10
65072;DHT22;51663;52.310;17.016;2023-05-02T14:24:19;32.70;26.60
65072;DHT22;51663;52.310;17.016;2023-05-02T14:27:21;32.90;26.60
65072;DHT22;51663;52.310;17.016;2023-05-02T14:30:24;33.10;26.40
65072;DHT22;51663;52.310;17.016;2023-05-02T14:33:28;34.00;25.90
65072;DHT22;51663;52.310;17.016;2023-05-02T14:36:31;33.90;25.80
65072;DHT22;51663;52.310;17.016;2023-05-02T14:39:34;34.60;25.10
65072;DHT22;51663;52.310;17.016;2023-05-02T14:42:42;34.40;24.70
65072;DHT22;51663;52.310;17.016;2023-05-02T14:45:44;34.60;24.80
65072;DHT22;51663;52.310;17.016;2023-05-02T14:48:50;34.90;24.30
65072;DHT22;51663;52.310;17.016;2023-05-02T14:51:54;34.90;24.70
65072;DHT22;51663;52.310;17.016;2023-05-02T14:55:01;34.70;24.40
65072;DHT22;51663;52.310;17.016;2023-05-02T14:58:07;34.60;24.90
65072;DHT22;51663;52.310;17.016;2023-05-02T15:01:20;33.90;25.00
65072;DHT22;51663;52.310;17.016;2023-05-02T15:04:23;33.80;25.30
65072;DHT22;51663;52.310;17.016;2023-05-02T15:07:28;33.60;25.00
65072;DHT22;51663;52.310;17.016;2023-05-02T15:10:35;33.10;25.10
65072;DHT22;51663;52.310;17.016;2023-05-02T15:13:38;32.60;25.80
65072;DHT22;51663;52.310;17.016;2023-05-02T15:16:40;32.40;25.90
65072;DHT22;51663;52.310;17.016;2023-05-02T15:19:42;32.30;25.90
65072;DHT22;51663;52.310;17.016;2023-05-02T15:22:44;32.70;25.80
65072;DHT22;51663;52.310;17.016;2023-05-02T15:25:48;33.10;25.70
65072;DHT22;51663;52.310;17.016;2023-05-02T15:28:50;33.10;25.10
65072;DHT22;51663;52.310;17.016;2023-05-02T15:31:53;32.80;25.20
65072;DHT22;51663;52.310;17.016;2023-05-02T15:34:55;32.70;25.40
65072;DHT22;51663;52.310;17.016;2023-05-02T15:38:00;32.80;25.00
65072;DHT22;51663;52.310;17.016;2023-05-02T15:41:02;32.60;26.10
65072;DHT22;51663;52.310;17.016;2023-05-02T15:44:04;33.20;24.80
65072;DHT22;51663;52.310;17.016;2023-05-02T15:47:09;33.60;24.60
65072;DHT22;51663;52.310;17.016;2023-05-02T15:50:12;33.70;24.50
65072;DHT22;51663;52.310;17.016;2023-05-02T15:53:16;34.10;25.20
65072;DHT22;51663;52.310;17.016;2023-05-02T15:56:19;34.00;24.70
65072;DHT22;51663;52.310;17.016;2023-05-02T15:59:30;33.60;24.40
65072;DHT22;51663;52.310;17.016;2023-05-02T16:02:32;33.60;24.90
65072;DHT22;51663;52.310;17.016;2023-05-02T16:05:35;33.50;24.80
65072;DHT22;51663;52.310;17.016;2023-05-02T16:08:37;33.40;25.10
65072;DHT22;51663;52.310;17.016;2023-05-02T16:11:42;33.00;25.40
65072;DHT22;51663;52.310;17.016;2023-05-02T16:14:45;32.30;26.10
65072;DHT22;51663;52.310;17.016;2023-05-02T16:17:48;32.30;26.20
65072;DHT22;51663;52.310;17.016;2023-05-02T16:20:51;32.50;25.90
65072;DHT22;51663;52.310;17.016;2023-05-02T16:24:06;31.90;26.20
65072;DHT22;51663;52.310;17.016;2023-05-02T16:27:17;31.40;26.60
65072;DHT22;51663;52.310;17.016;2023-05-02T16:30:35;31.80;26.50
65072;DHT22;51663;52.310;17.016;2023-05-02T16:34:00;32.40;26.10
65072;DHT22;51663;52.310;17.016;2023-05-02T16:37:19;33.10;25.50
65072;DHT22;51663;52.310;17.016;2023-05-02T16:40:21;33.80;24.80
65072;DHT22;51663;52.310;17.016;2023-05-02T16:43:23;34.20;24.60
65072;DHT22;51663;52.310;17.016;2023-05-02T16:46:26;34.00;24.90
65072;DHT22;51663;52.310;17.016;2023-05-02T16:49:28;32.80;25.20
65072;DHT22;51663;52.310;17.016;2023-05-02T16:52:30;31.90;26.30
65072;DHT22;51663;52.310;17.016;2023-05-02T16:55:35;31.40;26.60
65072;DHT22;51663;52.310;17.016;2023-05-02T16:58:40;31.30;27.00
65072;DHT22;51663;52.310;17.016;2023-05-02T17:01:44;31.10;27.30
65072;DHT22;51663;52.310;17.016;2023-05-02T17:04:48;31.60;26.90
65072;DHT22;51663;52.310;17.016;2023-05-02T17:07:51;32.30;26.30
65072;DHT22;51663;52.310;17.016;2023-05-02T17:10:53;32.50;26.00
65072;DHT22;51663;52.310;17.016;2023-05-02T17:13:55;32.50;25.90
65072;DHT22;51663;52.310;17.016;2023-05-02T17:16:59;32.70;25.90
65072;DHT22;51663;52.310;17.016;2023-05-02T17:20:01;32.10;26.60
65072;DHT22;51663;52.310;17.016;2023-05-02T17:23:04;32.00;26.60
65072;DHT22;51663;52.310;17.016;2023-05-02T17:26:07;31.90;26.60
65072;DHT22;51663;52.310;17.016;2023-05-02T17:29:15;31.40;27.10
65072;DHT22;51663;52.310;17.016;2023-05-02T17:32:17;31.30;27.20
65072;DHT22;51663;52.310;17.016;2023-05-02T17:35:26;31.40;27.30
65072;DHT22;51663;52.310;17.016;2023-05-02T17:38:28;31.00;27.60
65072;DHT22;51663;52.310;17.016;2023-05-02T17:41:38;30.90;27.70
65072;DHT22;51663;52.310;17.016;2023-05-02T17:44:43;30.70;28.10
65072;DHT22;51663;52.310;17.016;2023-05-02T17:47:54;30.40;28.20
65072;DHT22;51663;52.310;17.016;2023-05-02T17:51:00;30.70;27.90
65072;DHT22;51663;52.310;17.016;2023-05-02T17:54:18;30.80;27.80
65072;DHT22;51663;52.310;17.016;2023-05-02T17:57:21;31.10;27.70
65072;DHT22;51663;52.310;17.016;2023-05-02T18:00:35;31.60;27.30
65072;DHT22;51663;52.310;17.016;2023-05-02T18:03:40;31.80;26.80
65072;DHT22;51663;52.310;17.016;2023-05-02T18:06:45;32.00;26.40
65072;DHT22;51663;52.310;17.016;2023-05-02T18:10:01;32.10;26.40
65072;DHT22;51663;52.310;17.016;2023-05-02T18:13:34;32.50;26.30
65072;DHT22;51663;52.310;17.016;2023-05-02T18:16:52;32.80;25.80
65072;DHT22;51663;52.310;17.016;2023-05-02T18:19:54;32.80;25.70
65072;DHT22;51663;52.310;17.016;2023-05-02T18:23:05;32.90;25.40
65072;DHT22;51663;52.310;17.016;2023-05-02T18:26:29;32.20;25.80
65072;DHT22;51663;52.310;17.016;2023-05-02T18:29:51;32.40;25.80
65072;DHT22;51663;52.310;17.016;2023-05-02T18:32:55;32.00;26.10
65072;DHT22;51663;52.310;17.016;2023-05-02T18:35:58;32.00;26.10
65072;DHT22;51663;52.310;17.016;2023-05-02T18:39:03;32.10;26.10
65072;DHT22;51663;52.310;17.016;2023-05-02T18:42:18;32.20;26.10
65072;DHT22;51663;52.310;17.016;2023-05-02T18:45:31;31.80;26.50
65072;DHT22;51663;52.310;17.016;2023-05-02T18:48:38;31.90;26.50
65072;DHT22;51663;52.310;17.016;2023-05-02T18:51:46;32.20;26.10
65072;DHT22;51663;52.310;17.016;2023-05-02T18:54:56;32.20;25.90
65072;DHT22;51663;52.310;17.016;2023-05-02T18:57:59;32.40;26.10
65072;DHT22;51663;52.310;17.016;2023-05-02T19:01:13;32.40;25.90
65072;DHT22;51663;52.310;17.016;2023-05-02T19:04:24;32.20;26.00
65072;DHT22;51663;52.310;17.016;2023-05-02T19:07:40;32.20;25.90
65072;DHT22;51663;52.310;17.016;2023-05-02T19:10:47;32.30;25.90
65072;DHT22;51663;52.310;17.016;2023-05-02T19:13:52;32.30;25.70
65072;DHT22;51663;52.310;17.016;2023-05-02T19:16:57;32.30;25.70
65072;DHT22;51663;52.310;17.016;2023-05-02T19:20:00;32.00;25.90
65072;DHT22;51663;52.310;17.016;2023-05-02T19:23:09;31.70;26.30
65072;DHT22;51663;52.310;17.016;2023-05-02T19:26:25;31.40;26.30
65072;DHT22;51663;52.310;17.016;2023-05-02T19:29:30;31.20;26.60
65072;DHT22;51663;52.310;17.016;2023-05-02T19:32:34;31.30;26.60
65072;DHT22;51663;52.310;17.016;2023-05-02T19:35:39;31.60;26.20
65072;DHT22;51663;52.310;17.016;2023-05-02T19:41:52;31.80;25.90
65072;DHT22;51663;52.310;17.016;2023-05-02T19:44:57;31.50;25.80
65072;DHT22;51663;52.310;17.016;2023-05-02T19:48:04;31.00;26.00
65072;DHT22;51663;52.310;17.016;2023-05-02T19:51:12;31.10;25.90
65072;DHT22;51663;52.310;17.016;2023-05-02T19:54:19;31.20;25.80
65072;DHT22;51663;52.310;17.016;2023-05-02T19:57:24;31.40;25.40
65072;DHT22;51663;52.310;17.016;2023-05-02T20:00:26;31.20;25.40
65072;DHT22;51663;52.310;17.016;2023-05-02T20:03:31;31.20;25.30
65072;DHT22;51663;52.310;17.016;2023-05-02T20:06:38;31.10;25.30
65072;DHT22;51663;52.310;17.016;2023-05-02T20:09:40;30.80;25.40
65072;DHT22;51663;52.310;17.016;2023-05-02T20:12:45;30.80;25.70
65072;DHT22;51663;52.310;17.016;2023-05-02T20:15:49;30.90;25.70
65072;DHT22;51663;52.310;17.016;2023-05-02T20:18:51;31.60;25.30
65072;DHT22;51663;52.310;17.016;2023-05-02T20:21:54;31.80;25.00
65072;DHT22;51663;52.310;17.016;2023-05-02T20:24:57;31.90;24.80
65072;DHT22;51663;52.310;17.016;2023-05-02T20:28:09;32.00;25.00
65072;DHT22;51663;52.310;17.016;2023-05-02T20:31:14;32.00;24.80
65072;DHT22;51663;52.310;17.016;2023-05-02T20:34:21;31.90;25.00
65072;DHT22;51663;52.310;17.016;2023-05-02T20:37:25;32.20;24.80
65072;DHT22;51663;52.310;17.016;2023-05-02T20:40:29;32.30;24.70
65072;DHT22;51663;52.310;17.016;2023-05-02T20:43:32;32.60;24.60